createdAt,value
2023-06-29T00:01:57.906Z,7.10
2023-06-29T00:04:27.332Z,8.10
2023-06-29T00:06:54.317Z,7.60
2023-06-29T00:09:20.899Z,7.57
2023-06-29T00:11:47.386Z,7.55
2023-06-29T00:14:13.731Z,8.30
2023-06-29T00:16:40.540Z,7.72
2023-06-29T00:19:08.448Z,8.10
2023-06-29T00:21:34.892Z,8.05
2023-06-29T00:24:02.914Z,7.88
2023-06-29T00:26:30.093Z,7.63
2023-06-29T00:28:56.780Z,8.15
2023-06-29T00:31:25.250Z,7.80
2023-06-29T00:33:52.321Z,8.50
2023-06-29T00:36:19.173Z,7.93
2023-06-29T00:38:45.535Z,9.30
2023-06-29T00:41:12.000Z,8.85
2023-06-29T00:43:38.387Z,8.85
2023-06-29T00:46:08.876Z,9.20
2023-06-29T00:48:38.899Z,8.07
2023-06-29T00:51:05.378Z,8.30
2023-06-29T00:53:32.278Z,8.82
2023-06-29T00:56:02.705Z,8.88
2023-06-29T00:58:29.745Z,9.77
2023-06-29T01:00:57.214Z,8.18
2023-06-29T01:03:24.056Z,8.45
2023-06-29T01:05:55.103Z,8.73
2023-06-29T01:08:23.896Z,8.65
2023-06-29T01:10:50.439Z,8.30
2023-06-29T01:13:19.926Z,9.15
2023-06-29T01:15:47.961Z,8.35
2023-06-29T01:18:14.872Z,8.82
2023-06-29T01:20:42.306Z,9.57
2023-06-29T01:23:11.436Z,8.35
2023-06-29T01:25:39.439Z,9.02
2023-06-29T01:28:07.203Z,9.52
2023-06-29T01:30:33.633Z,9.57
2023-06-29T01:33:00.320Z,8.38
2023-06-29T01:35:27.272Z,8.68
2023-06-29T01:38:00.326Z,9.13
2023-06-29T01:40:28.791Z,9.35
2023-06-29T01:42:56.078Z,8.57
2023-06-29T01:45:23.296Z,9.30
2023-06-29T01:47:50.003Z,10.68
2023-06-29T01:50:17.508Z,9.88
2023-06-29T01:52:45.050Z,9.23
2023-06-29T01:55:12.339Z,9.15
2023-06-29T01:57:38.977Z,8.75
2023-06-29T02:00:06.345Z,9.15
2023-06-29T02:02:33.228Z,9.68
2023-06-29T02:04:59.687Z,9.63
2023-06-29T02:07:26.082Z,9.10
2023-06-29T02:09:52.756Z,9.13
2023-06-29T02:12:19.149Z,9.15
2023-06-29T02:14:45.557Z,8.48
2023-06-29T02:17:11.922Z,9.38
2023-06-29T02:19:38.389Z,8.80
2023-06-29T02:22:04.944Z,8.45
2023-06-29T02:24:32.188Z,9.95
2023-06-29T02:26:58.551Z,9.57
2023-06-29T02:29:24.877Z,10.20
2023-06-29T02:31:51.257Z,9.10
2023-06-29T02:34:17.673Z,9.13
2023-06-29T02:36:44.124Z,9.13
2023-06-29T02:39:10.554Z,9.52
2023-06-29T02:41:37.163Z,9.80
2023-06-29T02:44:03.951Z,10.13
2023-06-29T02:46:30.460Z,10.10
2023-06-29T02:48:56.818Z,9.80
2023-06-29T02:51:23.164Z,9.75
2023-06-29T02:53:49.504Z,9.90
2023-06-29T02:56:15.954Z,10.32
2023-06-29T02:58:42.304Z,9.93
2023-06-29T03:01:08.715Z,10.32
2023-06-29T03:03:35.275Z,9.52
2023-06-29T03:06:01.668Z,10.80
2023-06-29T03:08:28.069Z,10.52
2023-06-29T03:10:54.605Z,10.75
2023-06-29T03:13:21.066Z,10.32
2023-06-29T03:15:47.560Z,11.23
2023-06-29T03:18:14.054Z,10.32
2023-06-29T03:20:40.558Z,10.10
2023-06-29T03:23:07.299Z,10.35
2023-06-29T03:25:33.634Z,10.80
2023-06-29T03:28:00.071Z,9.90
2023-06-29T03:30:26.659Z,9.82
2023-06-29T03:32:54.307Z,10.50
2023-06-29T03:35:20.901Z,9.85
2023-06-29T03:37:47.437Z,11.30
2023-06-29T03:40:14.498Z,9.75
2023-06-29T03:42:40.816Z,10.23
2023-06-29T03:45:07.558Z,10.13
2023-06-29T03:47:34.076Z,11.40
2023-06-29T03:50:00.546Z,10.30
2023-06-29T03:52:26.907Z,10.85
2023-06-29T03:54:53.463Z,9.82
2023-06-29T03:57:19.826Z,11.02
2023-06-29T03:59:46.197Z,11.30
2023-06-29T04:02:12.824Z,11.40
2023-06-29T04:04:39.476Z,11.23
2023-06-29T04:07:05.872Z,11.60
2023-06-29T04:09:33.073Z,11.63
2023-06-29T04:11:59.442Z,11.23
2023-06-29T04:14:25.853Z,11.23
2023-06-29T04:16:52.441Z,12.30
2023-06-29T04:19:18.888Z,11.27
2023-06-29T04:21:45.238Z,11.00
2023-06-29T04:24:11.743Z,11.23
2023-06-29T04:26:39.771Z,11.82
2023-06-29T04:29:07.406Z,10.90
2023-06-29T04:31:34.698Z,10.98
2023-06-29T04:34:03.485Z,11.10
2023-06-29T04:36:30.707Z,11.70
2023-06-29T04:38:57.204Z,10.80
2023-06-29T04:41:32.637Z,11.13
2023-06-29T04:44:03.093Z,10.63
2023-06-29T04:46:29.711Z,11.90
2023-06-29T04:48:56.230Z,11.00
2023-06-29T04:51:22.801Z,11.57
2023-06-29T04:53:49.235Z,12.50
2023-06-29T04:56:15.646Z,11.60
2023-06-29T04:58:42.032Z,12.48
2023-06-29T05:01:08.549Z,12.88
2023-06-29T05:03:34.974Z,11.70
2023-06-29T05:06:01.380Z,13.52
2023-06-29T05:08:27.771Z,11.40
2023-06-29T05:10:54.204Z,12.40
2023-06-29T05:13:20.571Z,11.82
2023-06-29T05:15:49.173Z,11.63
2023-06-29T05:18:16.118Z,11.52
2023-06-29T05:20:42.640Z,10.02
2023-06-29T05:23:10.507Z,12.43
2023-06-29T05:25:37.523Z,11.60
2023-06-29T05:28:03.969Z,11.63
2023-06-29T05:30:30.420Z,12.25
2023-06-29T05:32:56.910Z,10.57
2023-06-29T05:35:23.450Z,12.52
2023-06-29T05:37:49.880Z,11.20
2023-06-29T05:40:16.547Z,12.07
2023-06-29T05:42:43.018Z,11.25
2023-06-29T05:45:09.653Z,10.75
2023-06-29T05:47:36.057Z,13.30
2023-06-29T05:50:02.518Z,11.35
2023-06-29T05:52:28.854Z,12.25
2023-06-29T05:54:55.190Z,12.75
2023-06-29T05:57:21.646Z,13.13
2023-06-29T05:59:48.015Z,11.98
2023-06-29T06:02:14.543Z,12.75
2023-06-29T06:04:40.917Z,12.35
2023-06-29T06:07:07.272Z,13.30
2023-06-29T06:09:33.678Z,13.23
2023-06-29T06:12:00.013Z,12.85
2023-06-29T06:14:26.517Z,13.02
2023-06-29T06:16:52.995Z,13.88
2023-06-29T06:19:19.616Z,13.10
2023-06-29T06:21:46.042Z,13.93
2023-06-29T06:24:12.597Z,12.20
2023-06-29T06:26:39.076Z,13.27
2023-06-29T06:29:05.479Z,13.63
2023-06-29T06:31:34.351Z,12.63
2023-06-29T06:34:01.344Z,13.60
2023-06-29T06:36:30.451Z,11.90
2023-06-29T06:38:56.835Z,13.40
2023-06-29T06:41:23.296Z,12.55
2023-06-29T06:43:49.706Z,13.68
2023-06-29T06:46:16.361Z,14.57
2023-06-29T06:48:42.873Z,13.40
2023-06-29T06:51:09.523Z,11.93
2023-06-29T06:53:36.102Z,13.00
2023-06-29T06:56:02.595Z,12.82
2023-06-29T06:58:28.981Z,12.52
2023-06-29T07:00:55.455Z,13.43
2023-06-29T07:03:21.954Z,12.65
2023-06-29T07:05:48.489Z,11.75
2023-06-29T07:08:14.899Z,12.52
2023-06-29T07:10:42.098Z,12.77
2023-06-29T07:13:08.731Z,12.68
2023-06-29T07:15:35.154Z,12.63
2023-06-29T07:18:01.563Z,13.73
2023-06-29T07:25:26.473Z,12.52
2023-06-29T07:27:52.881Z,12.80
2023-06-29T07:30:19.391Z,12.75
2023-06-29T07:32:45.843Z,13.30
2023-06-29T07:35:13.335Z,12.93
2023-06-29T07:37:39.823Z,13.40
2023-06-29T07:40:07.373Z,13.18
2023-06-29T07:42:39.313Z,13.85
2023-06-29T07:45:07.444Z,12.85
2023-06-29T07:47:34.016Z,13.80
2023-06-29T07:50:00.522Z,13.55
2023-06-29T07:52:28.114Z,12.63
2023-06-29T07:54:54.463Z,12.55
2023-06-29T07:59:50.511Z,12.57
2023-06-29T08:02:17.238Z,13.43
2023-06-29T08:07:14.112Z,13.20
2023-06-29T08:09:40.768Z,12.90
2023-06-29T08:12:07.495Z,13.43
2023-06-29T08:14:35.914Z,14.05
2023-06-29T08:17:03.712Z,14.35
2023-06-29T08:19:30.270Z,13.30
2023-06-29T08:21:56.860Z,14.30
2023-06-29T08:24:23.288Z,14.93
2023-06-29T08:26:49.686Z,13.75
2023-06-29T08:29:16.218Z,14.80
2023-06-29T08:31:42.693Z,14.65
2023-06-29T08:34:09.163Z,15.07
2023-06-29T08:36:36.646Z,15.00
2023-06-29T08:39:03.057Z,14.25
2023-06-29T08:41:29.767Z,15.82
2023-06-29T08:43:56.232Z,14.57
2023-06-29T08:46:22.828Z,14.73
2023-06-29T08:48:49.845Z,13.63
2023-06-29T08:51:18.381Z,14.63
2023-06-29T08:53:44.844Z,15.13
2023-06-29T08:56:12.028Z,14.38
2023-06-29T08:58:39.446Z,15.63
2023-06-29T09:01:06.754Z,15.13
2023-06-29T09:03:34.366Z,14.43
2023-06-29T09:06:00.934Z,15.15
2023-06-29T09:08:27.725Z,15.60
2023-06-29T09:10:56.172Z,17.48
2023-06-29T09:13:28.401Z,14.93
2023-06-29T09:15:55.509Z,14.98
2023-06-29T09:18:24.579Z,14.85
2023-06-29T09:20:52.172Z,15.80
2023-06-29T09:23:18.550Z,15.27
2023-06-29T09:25:46.289Z,15.57
2023-06-29T09:28:13.446Z,14.60
2023-06-29T09:30:41.123Z,15.27
2023-06-29T09:33:11.888Z,13.25
2023-06-29T09:35:40.705Z,13.88
2023-06-29T09:38:07.716Z,12.98
2023-06-29T09:40:46.535Z,13.25
2023-06-29T09:43:20.035Z,14.15
2023-06-29T09:45:46.541Z,13.80
2023-06-29T09:50:48.732Z,13.73
2023-06-29T09:53:15.850Z,14.18
2023-06-29T09:55:43.390Z,12.18
2023-06-29T09:58:10.802Z,12.43
2023-06-29T10:00:37.522Z,12.48
2023-06-29T10:03:04.972Z,11.88
2023-06-29T10:05:32.999Z,12.90
2023-06-29T10:08:02.669Z,12.73
2023-06-29T10:10:30.345Z,12.70
2023-06-29T10:12:58.611Z,11.35
2023-06-29T10:15:27.371Z,11.23
2023-06-29T10:17:56.833Z,12.57
2023-06-29T10:20:25.227Z,12.25
2023-06-29T10:22:52.402Z,12.75
2023-06-29T10:25:21.164Z,12.35
2023-06-29T10:27:48.682Z,12.27
2023-06-29T10:30:19.895Z,12.52
2023-06-29T10:32:48.798Z,13.15
2023-06-29T10:35:15.412Z,13.13
2023-06-29T10:37:43.018Z,12.50
2023-06-29T10:40:12.412Z,11.30
2023-06-29T10:42:38.817Z,12.05
2023-06-29T10:45:25.652Z,10.68
2023-06-29T10:47:54.916Z,11.43
2023-06-29T10:50:23.125Z,10.93
2023-06-29T10:52:50.561Z,11.43
2023-06-29T10:55:24.166Z,11.55
2023-06-29T10:57:55.085Z,11.25
2023-06-29T11:00:22.564Z,11.50
2023-06-29T11:02:49.822Z,11.65
2023-06-29T11:05:17.224Z,10.50
2023-06-29T11:07:52.549Z,11.10
2023-06-29T11:10:22.293Z,11.27
2023-06-29T11:12:49.793Z,10.77
2023-06-29T11:18:06.024Z,11.30
2023-06-29T11:20:32.860Z,11.48
2023-06-29T11:23:00.623Z,11.00
2023-06-29T11:25:27.936Z,10.55
2023-06-29T11:27:54.443Z,11.10
2023-06-29T11:30:21.137Z,12.73
2023-06-29T11:32:49.246Z,11.93
2023-06-29T11:35:15.595Z,11.13
2023-06-29T11:37:42.173Z,10.75
2023-06-29T11:40:27.161Z,11.68
2023-06-29T11:42:55.106Z,10.70
2023-06-29T11:45:22.430Z,11.07
2023-06-29T11:47:54.437Z,12.20
2023-06-29T11:50:20.837Z,12.55
2023-06-29T11:52:47.728Z,11.35
2023-06-29T11:55:14.994Z,11.77
2023-06-29T11:57:42.159Z,12.65
2023-06-29T12:00:15.045Z,11.07
2023-06-29T12:02:42.123Z,12.32
2023-06-29T12:05:09.750Z,10.23
2023-06-29T12:07:40.241Z,11.38
2023-06-29T12:10:08.588Z,11.50
2023-06-29T12:12:38.596Z,11.93
2023-06-29T12:15:12.062Z,11.60
2023-06-29T12:20:15.390Z,12.35
2023-06-29T12:22:42.344Z,11.00
2023-06-29T12:25:13.053Z,11.55
2023-06-29T12:27:43.272Z,11.93
2023-06-29T12:30:16.436Z,12.35
2023-06-29T12:32:43.658Z,11.07
2023-06-29T12:35:10.632Z,10.65
2023-06-29T12:37:39.058Z,11.40
2023-06-29T12:40:06.708Z,9.80
2023-06-29T12:42:33.750Z,10.32
2023-06-29T12:45:01.134Z,9.90
2023-06-29T12:47:29.192Z,10.43
2023-06-29T12:49:55.607Z,10.18
2023-06-29T12:52:22.038Z,8.73
2023-06-29T12:54:48.413Z,8.70
2023-06-29T12:57:14.993Z,8.02
2023-06-29T12:59:42.073Z,9.13
2023-06-29T13:02:08.919Z,8.00
2023-06-29T13:04:36.795Z,7.70
2023-06-29T13:07:03.647Z,9.52
2023-06-29T13:09:31.204Z,8.60
2023-06-29T13:12:00.575Z,9.73
2023-06-29T13:14:30.016Z,9.20
2023-06-29T13:16:59.540Z,9.82
2023-06-29T13:19:26.526Z,10.45
2023-06-29T13:21:53.447Z,10.02
2023-06-29T13:24:20.018Z,10.30
2023-06-29T13:26:46.442Z,10.05
2023-06-29T13:29:12.907Z,9.65
2023-06-29T13:31:39.320Z,9.43
2023-06-29T13:34:05.655Z,9.20
2023-06-29T13:36:32.039Z,9.05
2023-06-29T13:38:58.418Z,9.85
2023-06-29T13:41:41.923Z,9.25
2023-06-29T13:44:09.194Z,9.73
2023-06-29T13:46:36.428Z,9.20
2023-06-29T13:49:03.523Z,9.60
2023-06-29T13:51:30.667Z,9.55
2023-06-29T13:53:57.602Z,9.07
2023-06-29T13:56:24.534Z,9.85
2023-06-29T13:58:52.227Z,10.82
2023-06-29T14:01:19.475Z,10.60
2023-06-29T14:03:46.637Z,10.00
2023-06-29T14:06:13.909Z,10.23
2023-06-29T14:08:41.045Z,9.95
2023-06-29T14:11:07.697Z,9.63
2023-06-29T14:13:34.087Z,8.80
2023-06-29T14:16:00.765Z,9.70
2023-06-29T14:18:27.488Z,8.77
2023-06-29T14:20:54.137Z,9.68
2023-06-29T14:23:23.129Z,9.13
2023-06-29T14:25:49.493Z,8.15
2023-06-29T14:28:15.896Z,7.35
2023-06-29T14:30:42.351Z,8.25
2023-06-29T14:33:19.719Z,8.07
2023-06-29T14:35:54.319Z,8.32
2023-06-29T14:38:20.666Z,8.52
2023-06-29T14:40:47.147Z,8.80
2023-06-29T14:43:14.183Z,7.97
2023-06-29T14:45:41.460Z,9.90
2023-06-29T14:48:08.305Z,10.27
2023-06-29T14:50:34.772Z,9.38
2023-06-29T14:53:01.822Z,10.63
2023-06-29T14:55:28.437Z,10.02
2023-06-29T14:57:54.842Z,9.23
2023-06-29T15:00:21.510Z,10.82
2023-06-29T15:02:48.680Z,10.23
2023-06-29T15:05:15.661Z,10.60
2023-06-29T15:07:44.167Z,11.25
2023-06-29T15:10:11.514Z,10.07
2023-06-29T15:12:38.011Z,9.90
2023-06-29T15:15:04.934Z,7.95
2023-06-29T15:17:31.388Z,7.70
2023-06-29T15:19:58.124Z,6.93
2023-06-29T15:22:26.304Z,7.80
2023-06-29T15:24:53.448Z,6.25
2023-06-29T15:27:20.089Z,5.97
2023-06-29T15:29:50.092Z,5.88
2023-06-29T15:32:16.451Z,4.78
2023-06-29T15:34:42.873Z,4.18
2023-06-29T15:37:09.399Z,4.15
2023-06-29T15:39:36.779Z,4.22
2023-06-29T15:42:03.429Z,3.95
2023-06-29T15:44:29.818Z,2.78
2023-06-29T15:46:57.402Z,2.78
2023-06-29T15:49:23.945Z,3.10
2023-06-29T15:51:50.337Z,2.33
2023-06-29T15:54:18.129Z,2.70
2023-06-29T15:56:44.692Z,2.17
2023-06-29T15:59:11.381Z,2.22
2023-06-29T16:01:38.708Z,1.92
2023-06-29T16:04:05.222Z,1.95
2023-06-29T16:06:32.237Z,1.80
2023-06-29T16:08:58.818Z,1.83
2023-06-29T16:11:25.222Z,1.23
2023-06-29T16:13:51.783Z,1.13
2023-06-29T16:16:18.366Z,1.10
2023-06-29T16:18:44.879Z,1.25
2023-06-29T16:21:11.706Z,1.00
2023-06-29T16:23:39.811Z,1.05
2023-06-29T16:26:06.171Z,1.00
2023-06-29T16:28:33.071Z,0.75
2023-06-29T16:31:03.045Z,0.70
2023-06-29T16:33:29.729Z,0.80
2023-06-29T16:35:56.187Z,0.90
2023-06-29T16:38:22.752Z,0.60
2023-06-29T16:40:49.206Z,0.90
2023-06-29T16:43:15.929Z,0.60
2023-06-29T16:45:42.670Z,0.60
2023-06-29T16:48:09.823Z,0.65
2023-06-29T16:50:37.995Z,0.50
2023-06-29T16:53:04.471Z,0.70
2023-06-29T16:55:30.887Z,0.50
2023-06-29T16:57:57.331Z,1.15
2023-06-29T17:00:24.116Z,0.50
2023-06-29T17:02:50.720Z,0.50
2023-06-29T17:05:17.251Z,0.50
2023-06-29T17:07:43.683Z,0.43
2023-06-29T17:10:10.720Z,0.45
2023-06-29T17:12:37.179Z,0.50
2023-06-29T17:15:03.963Z,0.68
2023-06-29T17:17:30.558Z,0.50
2023-06-29T17:19:57.014Z,0.80
2023-06-29T17:22:23.368Z,0.65
2023-06-29T17:24:49.763Z,0.57
2023-06-29T17:27:16.352Z,0.73
2023-06-29T17:29:43.036Z,0.70
2023-06-29T17:32:09.868Z,0.63
2023-06-29T17:34:36.265Z,1.00
2023-06-29T17:37:03.339Z,0.40
2023-06-29T17:39:30.469Z,0.65
2023-06-29T17:41:58.735Z,0.50
2023-06-29T17:44:25.546Z,0.80
2023-06-29T17:46:52.086Z,0.50
2023-06-29T17:49:18.527Z,0.60
2023-06-29T17:51:44.967Z,0.90
2023-06-29T17:54:11.403Z,0.75
2023-06-29T17:56:38.054Z,0.80
2023-06-29T17:59:04.795Z,1.23
2023-06-29T18:01:31.156Z,1.40
2023-06-29T18:03:57.781Z,0.90
2023-06-29T18:06:24.387Z,0.75
2023-06-29T18:08:50.800Z,0.80
2023-06-29T18:11:17.237Z,1.30
2023-06-29T18:13:43.563Z,0.98
2023-06-29T18:16:11.065Z,1.20
2023-06-29T18:18:37.974Z,1.17
2023-06-29T18:21:05.767Z,1.35
2023-06-29T18:23:32.138Z,1.00
2023-06-29T18:25:58.587Z,1.30
2023-06-29T18:28:25.052Z,1.00
2023-06-29T18:30:51.733Z,1.20
2023-06-29T18:33:18.276Z,1.33
2023-06-29T18:35:45.067Z,1.05
2023-06-29T18:38:11.814Z,1.10
2023-06-29T18:40:38.214Z,1.02
2023-06-29T18:43:04.742Z,0.90
2023-06-29T18:45:31.741Z,0.90
2023-06-29T18:47:58.295Z,0.70
2023-06-29T18:50:24.728Z,0.60
2023-06-29T18:52:52.107Z,1.30
2023-06-29T18:55:19.056Z,0.73
2023-06-29T18:57:45.416Z,1.02
2023-06-29T19:00:12.052Z,0.93
2023-06-29T19:02:43.498Z,1.25
2023-06-29T19:05:10.764Z,1.35
2023-06-29T19:07:38.140Z,1.20
2023-06-29T19:10:04.852Z,1.25
2023-06-29T19:12:31.270Z,0.85
2023-06-29T19:14:57.811Z,1.10
2023-06-29T19:17:24.376Z,1.10
2023-06-29T19:19:50.776Z,1.90
2023-06-29T19:22:17.665Z,1.05
2023-06-29T19:24:44.077Z,1.08
2023-06-29T19:27:10.896Z,1.50
2023-06-29T19:29:37.283Z,1.25
2023-06-29T19:32:04.046Z,1.33
2023-06-29T19:34:32.099Z,1.40
2023-06-29T19:37:02.227Z,1.05
2023-06-29T19:39:28.716Z,1.40
2023-06-29T19:41:55.157Z,1.25
2023-06-29T19:44:21.552Z,1.23
2023-06-29T19:46:48.033Z,1.10
2023-06-29T19:49:14.597Z,1.15
2023-06-29T19:51:41.211Z,1.20
2023-06-29T19:54:08.076Z,1.10
2023-06-29T19:56:34.525Z,1.30
2023-06-29T19:59:00.924Z,1.30
2023-06-29T20:01:27.447Z,1.10
2023-06-29T20:03:54.045Z,1.42
2023-06-29T20:06:20.399Z,1.42
2023-06-29T20:08:46.797Z,1.30
2023-06-29T20:11:13.300Z,1.48
2023-06-29T20:13:39.998Z,1.33
2023-06-29T20:16:06.736Z,1.60
2023-06-29T20:18:33.446Z,1.10
2023-06-29T20:20:59.852Z,1.40
2023-06-29T20:23:26.278Z,1.50
2023-06-29T20:25:52.789Z,1.52
2023-06-29T20:28:19.185Z,1.27
2023-06-29T20:30:45.542Z,1.67
2023-06-29T20:33:11.913Z,1.55
2023-06-29T20:35:38.403Z,1.30
2023-06-29T20:38:04.778Z,2.03
2023-06-29T20:40:31.124Z,1.77
2023-06-29T20:42:59.795Z,1.98
2023-06-29T20:45:27.229Z,2.00
2023-06-29T20:47:53.718Z,2.05
2023-06-29T20:50:20.348Z,1.77
2023-06-29T20:52:46.843Z,2.10
2023-06-29T20:55:13.187Z,1.85
2023-06-29T20:57:40.120Z,1.85
2023-06-29T21:00:07.262Z,1.83
2023-06-29T21:02:34.125Z,2.05
2023-06-29T21:05:00.844Z,2.05
2023-06-29T21:07:27.451Z,1.73
2023-06-29T21:09:53.843Z,1.75
2023-06-29T21:12:20.418Z,1.65
2023-06-29T21:14:46.918Z,1.50
2023-06-29T21:17:13.537Z,1.30
2023-06-29T21:19:40.107Z,1.27
2023-06-29T21:22:08.791Z,2.03
2023-06-29T21:24:37.115Z,1.13
2023-06-29T21:27:03.724Z,1.48
2023-06-29T21:29:41.358Z,2.20
2023-06-29T21:32:10.275Z,1.60
2023-06-29T21:34:36.985Z,1.83
2023-06-29T21:37:04.237Z,1.63
2023-06-29T21:39:30.687Z,1.30
2023-06-29T21:41:57.272Z,1.48
2023-06-29T21:44:23.829Z,1.63
2023-06-29T21:46:50.233Z,1.55
2023-06-29T21:49:19.541Z,1.40
2023-06-29T21:51:46.093Z,1.17
2023-06-29T21:54:14.952Z,1.40
2023-06-29T21:56:41.546Z,1.63
2023-06-29T21:59:08.116Z,1.60
2023-06-29T22:01:34.566Z,1.50
2023-06-29T22:04:01.088Z,1.65
2023-06-29T22:06:29.256Z,1.40
2023-06-29T22:08:55.597Z,1.70
2023-06-29T22:11:22.819Z,1.30
2023-06-29T22:13:49.346Z,2.10
2023-06-29T22:16:16.034Z,1.45
2023-06-29T22:18:42.412Z,1.42
2023-06-29T22:21:09.358Z,1.85
2023-06-29T22:23:35.786Z,1.42
2023-06-29T22:26:02.143Z,1.67
2023-06-29T22:28:28.626Z,1.80
2023-06-29T22:30:54.970Z,1.83
2023-06-29T22:33:21.361Z,1.50
2023-06-29T22:35:48.078Z,1.75
2023-06-29T22:38:15.089Z,1.67
2023-06-29T22:40:41.550Z,1.40
2023-06-29T22:43:09.087Z,1.40
2023-06-29T22:45:35.583Z,1.83
2023-06-29T22:48:03.165Z,1.05
2023-06-29T22:50:29.846Z,1.58
2023-06-29T22:52:56.316Z,2.28
2023-06-29T22:55:22.763Z,1.60
2023-06-29T22:57:49.256Z,1.58
2023-06-29T23:00:16.603Z,1.98
2023-06-29T23:02:43.658Z,2.35
2023-06-29T23:05:10.277Z,2.03
2023-06-29T23:07:41.367Z,1.67
2023-06-29T23:10:08.869Z,1.48
2023-06-29T23:12:35.299Z,1.55
2023-06-29T23:15:01.719Z,2.03
2023-06-29T23:17:28.177Z,1.40
2023-06-29T23:19:54.558Z,1.98
2023-06-29T23:22:22.726Z,1.95
2023-06-29T23:24:54.013Z,2.35
2023-06-29T23:27:20.848Z,2.25
2023-06-29T23:29:47.158Z,2.38
2023-06-29T23:32:13.458Z,2.03
2023-06-29T23:34:40.232Z,1.40
2023-06-29T23:37:09.422Z,2.08
2023-06-29T23:39:38.178Z,1.90
2023-06-29T23:42:05.748Z,2.40
2023-06-29T23:44:32.366Z,2.00
2023-06-29T23:46:59.452Z,2.25
2023-06-29T23:49:25.809Z,1.83
2023-06-29T23:51:52.224Z,2.13
2023-06-29T23:54:18.751Z,2.50
2023-06-29T23:56:49.478Z,2.03
2023-06-29T23:59:16.411Z,1.95
